world map with PPP marked

PPP - Airport

This information may not be accurate or current and is not valid for navigation or flight planning. No warranty of fitness for any purpose is made or implied.

flag of Queenslandflag of Australia

Donate via PayPal

Additional information is available on the NEW Great Circle Mapper

Location
City:  Proserpine, Whitsunday Coast, Queensland, Australia
Near (Alt.):Prosperpine
ICAO / IATA:YBPN / PPP

Details
Type:Airport (Aerodrome, Airfield)
Latitude:20°29'42"S (-20.494999)
Longitude:148°33'08"E (148.552222)
Datum:WGS 1984
Elevation:82 ft (25 m)
Runways:2
Longest:6801 × 148 ft (2073 × 45 m)

Time
Timezone:UTC+10 (DST+12)
Local Time:

Weather
METAR:YBPN  041400Z AUTO 09011KT 9999 // SCT014 BKN021 OVC027 25/24 Q1005

Related Locations
Nearby:
Farthest:NTO: 11970 mi / 19264 km
Ponta do Sol [Agostinho Neto], Ribeira Grande, Santo Antão, CV

Find:

   beyond  
but within

Other Information
Maps:
Sources:

  


 


Great Circle Mapper   Great Circle Mapper
Great Circle Mapper FAQ   Great Circle Mapper FAQ
  Karl's Home Page
KLSē   KLSē Home
   GC on Facebook
Airlines of the World   Airlines of the World
Donate via PayPal


Copyright © 2004-2020, Karl L. Swartz. All rights reserved.
All trademarks mentioned herein belong to their respective owners.

Please see credits for attribution and copyright information.

Karl Swartz <karl@kls2.com>
  Powered by FreeBSD
Valid HTML 4.01!
Labeled with ICRA
hCard Microformat
Geo Microformat